createdAt,value
2022-10-20T00:02:18.722Z,9.33
2022-10-20T00:04:46.453Z,9.27
2022-10-20T00:07:13.251Z,9.24
2022-10-20T00:09:40.061Z,9.09
2022-10-20T00:12:06.837Z,9.21
2022-10-20T00:14:33.615Z,8.97
2022-10-20T00:17:01.595Z,8.80
2022-10-20T00:19:29.101Z,8.73
2022-10-20T00:21:56.636Z,8.73
2022-10-20T00:24:23.411Z,8.59
2022-10-20T00:26:50.242Z,8.52
2022-10-20T00:31:44.756Z,8.21
2022-10-20T00:34:12.206Z,8.00
2022-10-20T00:36:39.753Z,8.06
2022-10-20T00:39:07.264Z,8.23
2022-10-20T00:41:34.540Z,8.07
2022-10-20T00:44:22.869Z,7.82
2022-10-20T00:46:49.864Z,7.80
2022-10-20T00:49:22.359Z,7.80
2022-10-20T00:51:51.331Z,7.80
2022-10-20T00:54:25.704Z,7.85
2022-10-20T00:56:55.539Z,7.88
2022-10-20T00:59:26.527Z,7.74
2022-10-20T01:01:55.061Z,7.82
2022-10-20T01:04:22.925Z,7.85
2022-10-20T01:06:49.855Z,7.79
2022-10-20T01:09:16.847Z,7.50
2022-10-20T01:11:46.565Z,7.41
2022-10-20T01:14:31.803Z,7.27
2022-10-20T01:17:10.914Z,7.18
2022-10-20T01:20:07.765Z,7.07
2022-10-20T01:22:53.349Z,7.06
2022-10-20T01:25:50.587Z,7.26
2022-10-20T01:28:34.731Z,7.11
2022-10-20T01:31:05.829Z,6.90
2022-10-20T01:33:54.765Z,6.68
2022-10-20T01:36:31.285Z,6.72
2022-10-20T01:39:06.561Z,6.73
2022-10-20T01:41:43.739Z,6.60
2022-10-20T01:44:14.777Z,6.53
2022-10-20T01:46:43.350Z,6.49
2022-10-20T01:49:11.763Z,6.57
2022-10-20T01:51:38.632Z,6.49
2022-10-20T01:54:05.785Z,6.67
2022-10-20T01:57:04.349Z,6.81
2022-10-20T01:59:49.143Z,6.74
2022-10-20T02:02:45.508Z,6.73
2022-10-20T02:05:24.228Z,6.68
2022-10-20T02:07:54.136Z,6.51
2022-10-20T02:10:27.924Z,6.60
2022-10-20T02:12:59.513Z,6.54
2022-10-20T02:15:28.442Z,6.37
2022-10-20T02:18:00.429Z,6.50
2022-10-20T02:20:29.629Z,6.36
2022-10-20T02:22:58.717Z,6.40
2022-10-20T02:25:27.565Z,6.38
2022-10-20T02:27:56.438Z,6.33
2022-10-20T02:30:23.412Z,6.27
2022-10-20T02:32:52.979Z,6.45
2022-10-20T02:35:27.330Z,6.46
2022-10-20T02:37:54.202Z,6.39
2022-10-20T02:40:22.441Z,6.25
2022-10-20T02:42:49.776Z,6.38
2022-10-20T02:45:16.780Z,6.33
2022-10-20T02:47:43.703Z,6.19
2022-10-20T02:50:10.721Z,6.15
2022-10-20T02:52:38.135Z,6.10
2022-10-20T02:55:06.227Z,5.91
2022-10-20T02:57:33.561Z,6.11
2022-10-20T03:00:00.435Z,6.22
2022-10-20T03:02:27.244Z,6.22
2022-10-20T03:04:54.229Z,6.02
2022-10-20T03:07:20.982Z,6.04
2022-10-20T03:09:47.842Z,5.90
2022-10-20T03:12:14.701Z,5.87
2022-10-20T03:14:43.005Z,5.85
2022-10-20T03:17:10.105Z,5.73
2022-10-20T03:19:37.247Z,5.53
2022-10-20T03:22:03.994Z,5.34
2022-10-20T03:24:30.746Z,5.38
2022-10-20T03:26:57.556Z,5.27
2022-10-20T03:29:24.297Z,5.23
2022-10-20T03:31:51.089Z,5.17
2022-10-20T03:34:17.875Z,5.01
2022-10-20T03:36:44.658Z,5.18
2022-10-20T03:39:11.515Z,4.97
2022-10-20T03:41:38.295Z,4.97
2022-10-20T03:44:05.189Z,4.92
2022-10-20T03:46:31.881Z,4.82
2022-10-20T03:48:58.736Z,4.82
2022-10-20T03:51:25.582Z,4.62
2022-10-20T03:53:52.353Z,4.86
2022-10-20T03:56:20.476Z,4.81
2022-10-20T03:58:47.727Z,4.70
2022-10-20T04:01:20.346Z,4.67
2022-10-20T04:03:47.264Z,4.68
2022-10-20T04:06:14.940Z,4.57
2022-10-20T04:08:41.854Z,4.39
2022-10-20T04:11:08.982Z,4.49
2022-10-20T04:13:35.857Z,4.46
2022-10-20T04:16:02.592Z,4.26
2022-10-20T04:18:29.355Z,4.57
2022-10-20T04:20:59.240Z,4.46
2022-10-20T04:23:26.126Z,4.39
2022-10-20T04:25:52.961Z,4.35
2022-10-20T04:28:21.084Z,4.25
2022-10-20T04:30:49.095Z,4.32
2022-10-20T04:33:16.451Z,4.48
2022-10-20T04:35:46.370Z,4.59
2022-10-20T04:38:14.198Z,4.52
2022-10-20T04:40:41.098Z,4.65
2022-10-20T04:43:10.022Z,4.72
2022-10-20T04:45:37.364Z,4.76
2022-10-20T04:48:05.540Z,4.71
2022-10-20T04:50:34.962Z,4.61
2022-10-20T04:53:01.752Z,4.66
2022-10-20T04:55:28.493Z,4.67
2022-10-20T04:57:55.221Z,4.68
2022-10-20T05:00:22.010Z,4.63
2022-10-20T05:02:48.742Z,4.57
2022-10-20T05:05:15.612Z,4.52
2022-10-20T05:07:42.490Z,4.75
2022-10-20T05:10:10.292Z,4.78
2022-10-20T05:12:38.559Z,4.73
2022-10-20T05:15:05.890Z,4.73
2022-10-20T05:17:34.082Z,4.79
2022-10-20T05:20:01.263Z,4.66
2022-10-20T05:22:35.858Z,4.55
2022-10-20T05:25:37.090Z,4.43
2022-10-20T05:28:05.135Z,4.63
2022-10-20T05:30:34.479Z,4.64
2022-10-20T05:33:02.807Z,4.63
2022-10-20T05:35:29.640Z,4.57
2022-10-20T05:38:08.008Z,4.42
2022-10-20T05:40:42.206Z,4.53
2022-10-20T05:43:09.023Z,4.47
2022-10-20T05:45:35.772Z,4.51
2022-10-20T05:48:02.551Z,4.61
2022-10-20T05:50:29.440Z,4.59
2022-10-20T05:52:56.284Z,4.57
2022-10-20T05:55:23.277Z,4.59
2022-10-20T05:57:51.164Z,4.77
2022-10-20T06:00:23.905Z,4.75
2022-10-20T06:02:54.299Z,4.60
2022-10-20T06:05:20.995Z,4.56
2022-10-20T06:07:47.726Z,4.53
2022-10-20T06:10:14.472Z,4.48
2022-10-20T06:12:41.125Z,4.53
2022-10-20T06:15:08.365Z,4.68
2022-10-20T06:17:35.070Z,4.67
2022-10-20T06:20:01.823Z,4.87
2022-10-20T06:22:28.596Z,4.79
2022-10-20T06:24:55.286Z,4.84
2022-10-20T06:27:22.009Z,4.74
2022-10-20T06:29:48.893Z,4.71
2022-10-20T06:32:18.482Z,4.61
2022-10-20T06:34:45.321Z,4.72
2022-10-20T06:37:12.055Z,4.65
2022-10-20T06:39:38.759Z,4.83
2022-10-20T06:42:09.576Z,4.77
2022-10-20T06:44:38.706Z,4.85
2022-10-20T06:47:10.501Z,4.60
2022-10-20T06:49:37.312Z,4.65
2022-10-20T06:52:04.411Z,4.67
2022-10-20T06:54:31.364Z,4.78
2022-10-20T06:56:58.052Z,4.87
2022-10-20T06:59:24.814Z,4.74
2022-10-20T07:01:53.050Z,4.80
2022-10-20T07:04:19.862Z,4.76
2022-10-20T07:06:47.377Z,4.99
2022-10-20T07:09:19.703Z,5.01
2022-10-20T07:11:51.294Z,5.08
2022-10-20T07:14:18.016Z,5.03
2022-10-20T07:16:44.775Z,5.15
2022-10-20T07:19:11.850Z,5.29
2022-10-20T07:21:41.534Z,5.29
2022-10-20T07:24:10.412Z,5.47
2022-10-20T07:26:39.955Z,5.56
2022-10-20T07:29:06.856Z,5.65
2022-10-20T07:31:39.897Z,5.70
2022-10-20T07:34:26.763Z,6.04
2022-10-20T07:36:55.688Z,5.73
2022-10-20T07:39:22.732Z,6.31
2022-10-20T07:41:50.061Z,6.36
2022-10-20T07:44:17.170Z,6.51
2022-10-20T07:46:47.021Z,6.50
2022-10-20T07:52:00.834Z,6.96
2022-10-20T07:54:27.563Z,7.13
2022-10-20T07:56:54.278Z,7.29
2022-10-20T07:59:21.096Z,7.31
2022-10-20T08:01:48.245Z,7.39
2022-10-20T08:04:15.054Z,7.60
2022-10-20T08:06:42.078Z,7.74
2022-10-20T08:09:09.103Z,7.77
2022-10-20T08:11:36.263Z,8.05
2022-10-20T08:14:03.293Z,8.12
2022-10-20T08:16:33.459Z,8.70
2022-10-20T08:19:11.689Z,8.87
2022-10-20T08:21:38.438Z,9.26
2022-10-20T08:24:05.423Z,9.59
2022-10-20T08:26:32.133Z,9.91
2022-10-20T08:28:58.858Z,10.06
2022-10-20T08:31:25.921Z,10.30
2022-10-20T08:33:53.259Z,10.38
2022-10-20T08:36:21.214Z,10.43
2022-10-20T08:38:48.783Z,10.64
2022-10-20T08:41:21.191Z,10.51
2022-10-20T08:43:50.577Z,10.58
2022-10-20T08:46:20.348Z,10.78
2022-10-20T08:48:48.183Z,10.88
2022-10-20T08:51:21.093Z,10.99
2022-10-20T08:53:51.876Z,11.05
2022-10-20T08:56:23.067Z,11.02
2022-10-20T08:58:49.862Z,11.03
2022-10-20T09:01:26.178Z,10.98
2022-10-20T09:03:57.774Z,11.20
2022-10-20T09:06:24.993Z,11.09
2022-10-20T09:08:52.523Z,11.18
2022-10-20T09:11:24.424Z,11.17
2022-10-20T09:13:51.608Z,11.33
2022-10-20T09:16:40.691Z,11.30
2022-10-20T09:19:20.583Z,11.36
2022-10-20T09:21:52.593Z,11.26
2022-10-20T09:24:22.007Z,11.35
2022-10-20T09:26:59.992Z,11.39
2022-10-20T09:29:39.146Z,11.49
2022-10-20T09:32:52.675Z,11.52
2022-10-20T09:35:24.196Z,11.58
2022-10-20T09:37:55.036Z,11.75
2022-10-20T09:40:22.932Z,11.82
2022-10-20T09:43:18.289Z,11.75
2022-10-20T09:45:56.340Z,11.94
2022-10-20T09:48:33.151Z,11.61
2022-10-20T09:51:00.778Z,11.64
2022-10-20T09:53:32.654Z,11.82
2022-10-20T09:55:59.756Z,11.98
2022-10-20T09:58:39.344Z,11.96
2022-10-20T10:01:12.134Z,11.91
2022-10-20T10:03:41.262Z,11.82
2022-10-20T10:06:28.296Z,11.90
2022-10-20T10:08:56.611Z,11.78
2022-10-20T10:11:35.853Z,11.61
2022-10-20T10:14:03.647Z,11.76
2022-10-20T10:16:41.459Z,11.71
2022-10-20T10:21:55.782Z,11.64
2022-10-20T10:24:40.969Z,11.73
2022-10-20T10:27:22.713Z,11.58
2022-10-20T10:29:49.690Z,11.75
2022-10-20T10:32:19.547Z,11.64
2022-10-20T10:35:23.107Z,11.74
2022-10-20T10:37:50.348Z,11.75
2022-10-20T10:40:20.034Z,11.82
2022-10-20T10:42:49.807Z,11.96
2022-10-20T10:45:24.188Z,11.65
2022-10-20T10:48:00.707Z,12.03
2022-10-20T10:50:33.858Z,12.15
2022-10-20T10:53:25.211Z,12.19
2022-10-20T10:56:10.661Z,12.23
2022-10-20T10:58:40.094Z,12.24
2022-10-20T11:01:18.931Z,12.34
2022-10-20T11:04:20.164Z,12.27
2022-10-20T11:06:58.025Z,12.37
2022-10-20T11:09:46.645Z,12.35
2022-10-20T11:12:26.446Z,12.32
2022-10-20T11:15:30.618Z,12.44
2022-10-20T11:18:19.373Z,12.51
2022-10-20T11:20:59.700Z,12.54
2022-10-20T11:24:04.600Z,12.52
2022-10-20T11:26:47.959Z,12.54
2022-10-20T11:29:25.225Z,12.30
2022-10-20T11:32:18.557Z,12.74
2022-10-20T11:35:13.746Z,12.72
2022-10-20T11:37:43.460Z,12.75
2022-10-20T11:40:10.132Z,12.87
2022-10-20T11:42:52.841Z,12.94
2022-10-20T11:45:25.381Z,12.79
2022-10-20T11:48:21.471Z,12.79
2022-10-20T11:51:17.453Z,12.89
2022-10-20T11:54:13.491Z,12.96
2022-10-20T11:56:43.105Z,13.17
2022-10-20T11:59:35.053Z,13.08
2022-10-20T12:02:49.301Z,13.13
2022-10-20T12:05:48.169Z,13.19
2022-10-20T12:08:39.020Z,13.16
2022-10-20T12:11:14.714Z,13.22
2022-10-20T12:14:14.341Z,13.33
2022-10-20T12:16:58.411Z,13.30
2022-10-20T12:19:31.280Z,13.44
2022-10-20T12:22:04.148Z,13.49
2022-10-20T12:24:30.801Z,13.43
2022-10-20T12:27:17.936Z,13.39
2022-10-20T12:29:44.592Z,13.31
2022-10-20T12:32:29.853Z,13.31
2022-10-20T12:35:02.042Z,13.25
2022-10-20T12:37:34.652Z,13.44
2022-10-20T12:40:07.822Z,13.54
2022-10-20T12:42:39.089Z,13.45
2022-10-20T12:45:09.161Z,13.47
2022-10-20T12:47:37.599Z,13.40
2022-10-20T12:50:31.362Z,13.43
2022-10-20T12:53:10.932Z,13.52
2022-10-20T12:55:41.917Z,13.45
2022-10-20T12:58:18.270Z,13.52
2022-10-20T13:00:48.333Z,13.56
2022-10-20T13:03:47.006Z,13.59
2022-10-20T13:06:22.575Z,13.62
2022-10-20T13:09:04.960Z,13.60
2022-10-20T13:11:37.889Z,13.59
2022-10-20T13:14:27.650Z,13.73
2022-10-20T13:17:09.623Z,13.70
2022-10-20T13:20:01.169Z,13.76
2022-10-20T13:22:38.250Z,13.83
2022-10-20T13:25:28.108Z,13.88
2022-10-20T13:28:13.284Z,13.91
2022-10-20T13:31:05.755Z,13.90
2022-10-20T13:34:08.666Z,14.05
2022-10-20T13:36:38.247Z,14.08
2022-10-20T13:39:33.633Z,14.07
2022-10-20T13:42:06.484Z,14.08
2022-10-20T13:44:52.413Z,14.03
2022-10-20T13:47:31.096Z,13.96
2022-10-20T13:50:14.644Z,14.05
2022-10-20T13:52:47.453Z,14.09
2022-10-20T13:55:27.183Z,14.12
2022-10-20T13:58:07.640Z,14.17
2022-10-20T14:00:36.430Z,14.07
2022-10-20T14:03:15.633Z,14.17
2022-10-20T14:05:42.562Z,13.86
2022-10-20T14:08:17.115Z,14.09
2022-10-20T14:10:55.200Z,14.06
2022-10-20T14:13:34.628Z,13.89
2022-10-20T14:16:08.217Z,13.96
2022-10-20T14:18:39.703Z,13.98
2022-10-20T14:21:19.959Z,13.84
2022-10-20T14:23:49.314Z,13.77
2022-10-20T14:26:19.840Z,13.68
2022-10-20T14:28:48.878Z,13.75
2022-10-20T14:31:16.384Z,13.57
2022-10-20T14:33:48.089Z,13.53
2022-10-20T14:39:01.019Z,13.70
2022-10-20T14:41:34.103Z,13.66
2022-10-20T14:44:06.790Z,13.68
2022-10-20T14:46:40.554Z,13.72
2022-10-20T14:49:22.865Z,13.69
2022-10-20T14:52:12.458Z,13.63
2022-10-20T14:54:39.980Z,13.57
2022-10-20T14:57:09.581Z,13.61
2022-10-20T14:59:49.649Z,13.41
2022-10-20T15:02:19.447Z,13.41
2022-10-20T15:04:48.579Z,13.25
2022-10-20T15:07:32.914Z,13.22
2022-10-20T15:10:25.392Z,13.09
2022-10-20T15:12:54.245Z,13.01
2022-10-20T15:15:36.142Z,12.88
2022-10-20T15:18:18.549Z,12.77
2022-10-20T15:20:47.966Z,12.82
2022-10-20T15:23:27.024Z,12.74
2022-10-20T15:26:11.096Z,12.57
2022-10-20T15:28:47.793Z,12.52
2022-10-20T15:31:27.290Z,12.53
2022-10-20T15:33:56.127Z,12.42
2022-10-20T15:36:29.619Z,12.34
2022-10-20T15:38:57.042Z,12.26
2022-10-20T15:41:35.448Z,12.19
2022-10-20T15:44:10.801Z,12.16
2022-10-20T15:46:37.541Z,12.13
2022-10-20T15:49:04.624Z,12.06
2022-10-20T15:51:34.805Z,11.98
2022-10-20T15:54:02.409Z,12.00
2022-10-20T15:56:29.550Z,11.87
2022-10-20T15:58:56.439Z,11.69
2022-10-20T16:01:23.572Z,11.63
2022-10-20T16:03:51.611Z,11.84
2022-10-20T16:06:19.223Z,11.67
2022-10-20T16:08:48.474Z,11.66
2022-10-20T16:11:16.854Z,11.63
2022-10-20T16:13:44.038Z,11.49
2022-10-20T16:16:17.248Z,11.62
2022-10-20T16:18:45.015Z,11.71
2022-10-20T16:21:12.762Z,11.59
2022-10-20T16:23:42.309Z,11.38
2022-10-20T16:26:13.735Z,11.56
2022-10-20T16:28:40.892Z,11.55
2022-10-20T16:31:10.761Z,11.32
2022-10-20T16:33:38.246Z,11.49
2022-10-20T16:38:40.485Z,11.39
2022-10-20T16:41:10.614Z,11.43
2022-10-20T16:43:42.062Z,11.33
2022-10-20T16:46:10.338Z,11.17
2022-10-20T16:48:40.437Z,11.09
2022-10-20T16:51:11.504Z,10.83
2022-10-20T16:53:39.160Z,10.83
2022-10-20T16:56:07.106Z,10.83
2022-10-20T16:58:37.341Z,10.68
2022-10-20T17:01:11.273Z,10.64
2022-10-20T17:03:44.993Z,10.43
2022-10-20T17:06:14.700Z,10.48
2022-10-20T17:08:42.545Z,10.47
2022-10-20T17:11:14.897Z,10.27
2022-10-20T17:13:42.038Z,10.24
2022-10-20T17:16:34.067Z,10.05
2022-10-20T17:19:05.263Z,9.91
2022-10-20T17:21:35.984Z,9.63
2022-10-20T17:24:04.251Z,9.80
2022-10-20T17:26:32.960Z,9.76
2022-10-20T17:29:02.012Z,9.70
2022-10-20T17:31:30.103Z,9.64
2022-10-20T17:34:00.873Z,9.61
2022-10-20T17:36:30.852Z,9.60
2022-10-20T17:38:59.651Z,9.58
2022-10-20T17:41:27.556Z,9.54
2022-10-20T17:43:55.360Z,9.58
2022-10-20T17:46:23.234Z,9.41
2022-10-20T17:48:50.661Z,9.62
2022-10-20T17:51:20.666Z,9.88
2022-10-20T17:53:49.153Z,9.77
2022-10-20T17:56:20.346Z,9.67
2022-10-20T17:58:49.411Z,9.64
2022-10-20T18:01:20.505Z,9.84
2022-10-20T18:03:50.379Z,9.96
2022-10-20T18:06:20.485Z,10.16
2022-10-20T18:08:53.018Z,10.14
2022-10-20T18:11:24.426Z,10.06
2022-10-20T18:13:52.391Z,10.08
2022-10-20T18:16:21.754Z,10.04
2022-10-20T18:18:51.187Z,10.04
2022-10-20T18:21:20.191Z,10.16
2022-10-20T18:23:48.971Z,10.18
2022-10-20T18:26:23.005Z,10.01
2022-10-20T18:28:51.433Z,9.88
2022-10-20T18:31:23.162Z,9.81
2022-10-20T18:33:54.861Z,9.78
2022-10-20T18:36:22.715Z,9.72
2022-10-20T18:38:50.319Z,9.58
2022-10-20T18:41:20.387Z,9.49
2022-10-20T18:43:56.912Z,9.30
2022-10-20T18:46:27.298Z,9.45
2022-10-20T18:48:55.317Z,9.40
2022-10-20T18:51:23.243Z,9.39
2022-10-20T18:53:56.444Z,9.25
2022-10-20T18:56:26.435Z,9.66
2022-10-20T18:58:59.215Z,9.66
2022-10-20T19:01:30.074Z,9.51
2022-10-20T19:03:59.342Z,9.51
2022-10-20T19:06:47.151Z,9.61
2022-10-20T19:09:20.515Z,9.55
2022-10-20T19:14:18.176Z,9.51
2022-10-20T19:16:50.881Z,9.61
2022-10-20T19:19:19.047Z,9.56
2022-10-20T19:21:46.777Z,9.50
2022-10-20T19:24:18.164Z,9.55
2022-10-20T19:26:57.250Z,9.49
2022-10-20T19:29:33.428Z,9.55
2022-10-20T19:32:02.592Z,9.51
2022-10-20T19:34:41.712Z,9.47
2022-10-20T19:37:10.287Z,9.44
2022-10-20T19:39:41.834Z,9.36
2022-10-20T19:42:10.614Z,9.42
2022-10-20T19:44:42.776Z,9.57
2022-10-20T19:47:11.546Z,9.40
2022-10-20T19:49:40.507Z,9.44
2022-10-20T19:52:09.922Z,9.52
2022-10-20T19:54:38.601Z,9.37
2022-10-20T19:57:06.882Z,9.32
2022-10-20T19:59:34.543Z,9.33
2022-10-20T20:02:02.220Z,9.40
2022-10-20T20:04:30.123Z,9.31
2022-10-20T20:07:01.940Z,9.27
2022-10-20T20:09:30.725Z,9.27
2022-10-20T20:11:58.871Z,9.21
2022-10-20T20:14:26.242Z,9.28
2022-10-20T20:16:53.461Z,9.39
2022-10-20T20:19:20.811Z,9.26
2022-10-20T20:21:48.461Z,9.19
2022-10-20T20:24:15.848Z,9.14
2022-10-20T20:26:48.069Z,9.11
2022-10-20T20:29:15.325Z,8.74
2022-10-20T20:31:42.265Z,8.73
2022-10-20T20:34:09.716Z,8.77
2022-10-20T20:36:36.863Z,8.70
2022-10-20T20:39:04.167Z,8.71
2022-10-20T20:41:31.333Z,8.69
2022-10-20T20:43:58.468Z,8.79
2022-10-20T20:46:29.498Z,8.70
2022-10-20T20:49:00.714Z,8.70
2022-10-20T20:51:34.059Z,8.68
2022-10-20T20:54:01.951Z,8.66
2022-10-20T20:56:28.695Z,8.64
2022-10-20T20:58:59.357Z,8.61
2022-10-20T21:01:27.811Z,8.62
2022-10-20T21:03:56.508Z,8.64
2022-10-20T21:06:33.464Z,8.57
2022-10-20T21:09:06.410Z,8.52
2022-10-20T21:11:33.184Z,8.65
2022-10-20T21:13:59.972Z,8.66
2022-10-20T21:16:32.135Z,8.65
2022-10-20T21:19:02.232Z,8.69
2022-10-20T21:21:31.299Z,8.63
2022-10-20T21:23:58.825Z,8.52
2022-10-20T21:26:27.096Z,8.62
2022-10-20T21:28:54.391Z,8.60
2022-10-20T21:31:25.143Z,8.51
2022-10-20T21:33:54.264Z,8.53
2022-10-20T21:36:21.667Z,8.58
2022-10-20T21:38:48.872Z,8.65
2022-10-20T21:41:21.557Z,8.49
2022-10-20T21:43:51.062Z,8.47
2022-10-20T21:46:23.522Z,8.45
2022-10-20T21:48:52.458Z,8.15
2022-10-20T21:51:26.120Z,8.21
2022-10-20T21:53:57.341Z,8.15
2022-10-20T21:56:24.971Z,8.03
2022-10-20T21:58:52.128Z,7.78
2022-10-20T22:01:23.969Z,7.90
2022-10-20T22:03:52.879Z,7.71
2022-10-20T22:06:22.022Z,7.89
2022-10-20T22:08:52.270Z,7.70
2022-10-20T22:11:22.265Z,7.81
2022-10-20T22:13:49.219Z,7.62
2022-10-20T22:16:18.938Z,7.61
2022-10-20T22:18:45.675Z,7.40
2022-10-20T22:21:15.926Z,7.33
2022-10-20T22:23:43.322Z,7.12
2022-10-20T22:26:11.215Z,7.39
2022-10-20T22:28:38.568Z,7.29
2022-10-20T22:31:06.289Z,7.05
2022-10-20T22:33:33.534Z,7.00
2022-10-20T22:36:00.308Z,7.11
2022-10-20T22:38:27.043Z,7.08
2022-10-20T22:40:58.757Z,7.01
2022-10-20T22:43:25.992Z,7.04
2022-10-20T22:45:52.799Z,7.03
2022-10-20T22:48:19.610Z,7.05
2022-10-20T22:50:46.391Z,6.95
2022-10-20T22:53:13.271Z,6.97
2022-10-20T22:55:40.012Z,6.76
2022-10-20T22:58:06.919Z,6.90
2022-10-20T23:03:32.782Z,6.96
2022-10-20T23:05:59.532Z,7.10
2022-10-20T23:08:29.374Z,7.01
2022-10-20T23:10:59.141Z,7.18
2022-10-20T23:13:25.919Z,7.03
2022-10-20T23:15:53.235Z,7.02
2022-10-20T23:18:20.621Z,7.17
2022-10-20T23:20:47.441Z,7.19
2022-10-20T23:23:14.462Z,7.12
2022-10-20T23:25:43.974Z,7.35
2022-10-20T23:28:10.836Z,7.39
2022-10-20T23:30:37.584Z,7.18
2022-10-20T23:33:04.323Z,7.18
2022-10-20T23:35:31.334Z,7.00
2022-10-20T23:37:58.023Z,7.15
2022-10-20T23:40:24.752Z,7.00
2022-10-20T23:42:51.447Z,6.86
2022-10-20T23:45:18.133Z,7.07
2022-10-20T23:47:44.984Z,6.85
2022-10-20T23:50:11.751Z,6.96
2022-10-20T23:55:06.577Z,6.77
2022-10-20T23:57:33.274Z,6.87
2022-10-20T23:59:59.983Z,6.86
